createdAt,value
2018-05-11T00:01:23.699Z,15.70
2018-05-11T00:03:51.386Z,15.60
2018-05-11T00:06:19.039Z,15.60
2018-05-11T00:08:47.460Z,15.60
2018-05-11T00:11:15.147Z,15.50
2018-05-11T00:13:42.818Z,15.50
2018-05-11T00:16:10.521Z,15.50
2018-05-11T00:18:39.262Z,15.60
2018-05-11T00:21:06.952Z,15.60
2018-05-11T00:23:35.421Z,15.50
2018-05-11T00:26:03.106Z,15.40
2018-05-11T00:28:30.756Z,15.50
2018-05-11T00:30:59.341Z,15.30
2018-05-11T00:33:27.799Z,15.30
2018-05-11T00:35:55.545Z,15.30
2018-05-11T00:38:23.191Z,15.40
2018-05-11T00:40:50.868Z,15.30
2018-05-11T00:43:18.519Z,15.30
2018-05-11T00:45:46.201Z,15.30
2018-05-11T00:48:13.865Z,15.30
2018-05-11T00:50:41.551Z,15.30
2018-05-11T00:53:10.000Z,15.30
2018-05-11T00:55:49.701Z,15.30
2018-05-11T00:58:18.108Z,15.20
2018-05-11T01:00:45.786Z,15.20
2018-05-11T01:03:13.478Z,15.20
2018-05-11T01:05:41.924Z,15.20
2018-05-11T01:08:10.946Z,15.20
2018-05-11T01:10:40.574Z,15.20
2018-05-11T01:13:09.318Z,15.20
2018-05-11T01:15:37.147Z,15.20
2018-05-11T01:18:04.843Z,15.10
2018-05-11T01:20:32.516Z,15.10
2018-05-11T01:23:00.984Z,15.00
2018-05-11T01:25:28.654Z,15.00
2018-05-11T01:27:56.341Z,15.00
2018-05-11T01:30:24.014Z,14.90
2018-05-11T01:32:51.715Z,14.90
2018-05-11T01:35:19.380Z,14.90
2018-05-11T01:37:47.047Z,14.90
2018-05-11T01:40:14.711Z,14.90
2018-05-11T01:42:42.365Z,14.90
2018-05-11T01:45:10.080Z,15.00
2018-05-11T01:47:38.297Z,14.90
2018-05-11T01:50:06.735Z,14.80
2018-05-11T01:52:34.375Z,14.80
2018-05-11T01:55:02.820Z,14.70
2018-05-11T01:57:30.493Z,14.70
2018-05-11T01:59:58.186Z,14.70
2018-05-11T02:02:26.634Z,14.60
2018-05-11T02:04:54.309Z,14.60
2018-05-11T02:07:21.965Z,14.60
2018-05-11T02:09:49.657Z,14.60
2018-05-11T02:12:17.305Z,14.60
2018-05-11T02:14:45.773Z,14.50
2018-05-11T02:17:14.207Z,14.50
2018-05-11T02:19:41.897Z,14.40
2018-05-11T02:22:10.620Z,14.50
2018-05-11T02:24:39.459Z,14.40
2018-05-11T02:27:07.166Z,14.40
2018-05-11T02:29:35.611Z,14.40
2018-05-11T02:32:03.301Z,14.40
2018-05-11T02:34:31.734Z,14.40
2018-05-11T02:36:59.424Z,14.40
2018-05-11T02:39:27.091Z,14.40
2018-05-11T02:41:54.773Z,14.40
2018-05-11T02:44:23.208Z,14.30
2018-05-11T02:46:50.881Z,14.30
2018-05-11T02:49:18.535Z,14.20
2018-05-11T02:51:46.252Z,14.30
2018-05-11T02:54:13.933Z,14.30
2018-05-11T02:56:41.585Z,14.30
2018-05-11T02:59:10.408Z,14.20
2018-05-11T03:01:39.785Z,14.10
2018-05-11T03:04:07.502Z,14.00
2018-05-11T03:06:35.168Z,14.00
2018-05-11T03:09:03.662Z,14.00
2018-05-11T03:11:31.331Z,14.00
2018-05-11T03:13:59.014Z,13.90
2018-05-11T03:16:26.679Z,13.80
2018-05-11T03:18:54.375Z,13.80
2018-05-11T03:21:22.051Z,13.70
2018-05-11T03:23:49.751Z,13.70
2018-05-11T03:26:17.423Z,13.70
2018-05-11T03:28:45.119Z,13.70
2018-05-11T03:31:12.783Z,13.70
2018-05-11T03:33:40.498Z,13.70
2018-05-11T03:36:09.273Z,13.60
2018-05-11T03:38:36.971Z,13.60
2018-05-11T03:41:04.663Z,13.60
2018-05-11T03:43:32.347Z,13.50
2018-05-11T03:46:00.804Z,13.50
2018-05-11T03:48:28.481Z,13.40
2018-05-11T03:50:56.928Z,13.50
2018-05-11T03:53:24.634Z,13.50
2018-05-11T03:55:53.075Z,13.60
2018-05-11T03:58:20.728Z,13.50
2018-05-11T04:00:48.421Z,13.50
2018-05-11T04:03:28.089Z,13.40
2018-05-11T04:06:03.839Z,13.50
2018-05-11T04:08:48.315Z,13.40
2018-05-11T04:11:15.991Z,13.30
2018-05-11T04:13:44.501Z,13.30
2018-05-11T04:16:12.211Z,13.30
2018-05-11T04:18:39.921Z,13.40
2018-05-11T04:21:08.203Z,13.40
2018-05-11T04:23:35.878Z,13.40
2018-05-11T04:26:04.358Z,13.40
2018-05-11T04:28:32.781Z,13.40
2018-05-11T04:31:00.458Z,13.40
2018-05-11T04:33:28.156Z,13.40
2018-05-11T04:35:55.841Z,13.40
2018-05-11T04:38:24.341Z,13.40
2018-05-11T04:40:52.006Z,13.40
2018-05-11T04:43:19.698Z,13.30
2018-05-11T04:45:47.363Z,13.40
2018-05-11T04:48:15.062Z,13.20
2018-05-11T04:50:43.490Z,13.30
2018-05-11T04:53:11.201Z,13.20
2018-05-11T04:55:40.913Z,13.30
2018-05-11T04:58:10.607Z,13.30
2018-05-11T05:00:38.322Z,13.30
2018-05-11T05:03:05.998Z,13.30
2018-05-11T05:05:33.698Z,13.40
2018-05-11T05:08:02.125Z,13.40
2018-05-11T05:10:29.813Z,13.40
2018-05-11T05:12:57.469Z,13.40
2018-05-11T05:15:25.537Z,13.40
2018-05-11T05:17:54.004Z,13.40
2018-05-11T05:20:21.708Z,13.40
2018-05-11T05:22:49.391Z,13.50
2018-05-11T05:25:17.827Z,13.50
2018-05-11T05:27:45.508Z,13.50
2018-05-11T05:30:13.199Z,13.60
2018-05-11T05:32:40.867Z,13.50
2018-05-11T05:35:09.387Z,13.50
2018-05-11T05:37:37.054Z,13.50
2018-05-11T05:40:04.741Z,13.60
2018-05-11T05:42:32.406Z,13.60
2018-05-11T05:45:00.860Z,13.60
2018-05-11T05:47:28.549Z,13.60
2018-05-11T05:49:57.003Z,13.50
2018-05-11T05:52:24.694Z,13.50
2018-05-11T05:54:53.159Z,13.40
2018-05-11T05:57:20.823Z,13.40
2018-05-11T05:59:48.698Z,13.30
2018-05-11T06:02:16.340Z,13.40
2018-05-11T06:04:44.031Z,13.40
2018-05-11T06:07:11.753Z,13.40
2018-05-11T06:09:40.276Z,13.40
2018-05-11T06:12:09.746Z,13.30
2018-05-11T06:14:39.128Z,13.30
2018-05-11T06:17:06.951Z,13.40
2018-05-11T06:19:35.674Z,13.30
2018-05-11T06:22:03.467Z,13.40
2018-05-11T06:24:31.830Z,13.50
2018-05-11T06:26:59.529Z,13.50
2018-05-11T06:29:27.947Z,13.40
2018-05-11T06:31:55.642Z,13.40
2018-05-11T06:34:32.812Z,13.50
2018-05-11T06:37:10.316Z,13.80
2018-05-11T06:39:39.685Z,13.80
2018-05-11T06:42:07.369Z,13.80
2018-05-11T06:44:35.030Z,13.80
2018-05-11T06:47:02.723Z,13.80
2018-05-11T06:49:30.391Z,13.90
2018-05-11T06:51:58.847Z,13.90
2018-05-11T06:54:26.518Z,13.90
2018-05-11T06:56:54.191Z,14.00
2018-05-11T06:59:21.861Z,14.10
2018-05-11T07:01:50.310Z,14.00
2018-05-11T07:04:17.983Z,14.00
2018-05-11T07:06:45.678Z,14.00
2018-05-11T07:09:13.338Z,13.80
2018-05-11T07:11:41.055Z,13.90
2018-05-11T07:14:09.812Z,13.90
2018-05-11T07:16:37.566Z,14.00
2018-05-11T07:19:05.198Z,14.20
2018-05-11T07:21:33.627Z,14.00
2018-05-11T07:24:01.304Z,14.00
2018-05-11T07:26:28.979Z,14.20
2018-05-11T07:28:57.238Z,14.40
2018-05-11T07:31:24.902Z,14.40
2018-05-11T07:33:52.590Z,14.80
2018-05-11T07:36:21.018Z,15.10
2018-05-11T07:38:48.703Z,15.10
2018-05-11T07:41:16.370Z,15.20
2018-05-11T07:43:44.070Z,15.20
2018-05-11T07:46:12.498Z,15.30
2018-05-11T07:48:40.180Z,15.30
2018-05-11T07:51:08.246Z,15.20
2018-05-11T07:53:35.936Z,15.00
2018-05-11T07:56:04.911Z,15.20
2018-05-11T07:58:32.664Z,15.20
2018-05-11T08:01:00.332Z,15.40
2018-05-11T08:03:28.022Z,15.00
2018-05-11T08:05:56.435Z,14.60
2018-05-11T08:08:24.118Z,14.60
2018-05-11T08:10:51.781Z,14.50
2018-05-11T08:13:19.460Z,14.40
2018-05-11T08:15:47.117Z,14.30
2018-05-11T08:18:14.807Z,14.40
2018-05-11T08:20:43.241Z,14.40
2018-05-11T08:23:10.946Z,14.40
2018-05-11T08:25:40.618Z,14.60
2018-05-11T08:28:08.301Z,14.60
2018-05-11T08:30:35.967Z,14.70
2018-05-11T08:33:03.716Z,14.90
2018-05-11T08:35:31.480Z,15.20
2018-05-11T08:37:59.301Z,15.10
2018-05-11T08:40:26.962Z,15.30
2018-05-11T08:42:54.621Z,15.30
2018-05-11T08:45:22.307Z,15.70
2018-05-11T08:47:49.978Z,15.90
2018-05-11T08:50:17.660Z,16.10
2018-05-11T08:52:45.375Z,16.20
2018-05-11T08:55:13.041Z,16.10
2018-05-11T08:57:40.688Z,15.80
2018-05-11T09:00:09.152Z,15.80
2018-05-11T09:02:38.223Z,16.00
2018-05-11T09:05:06.675Z,16.10
2018-05-11T09:07:34.568Z,16.00
2018-05-11T09:10:03.027Z,16.30
2018-05-11T09:12:30.681Z,16.20
2018-05-11T09:14:58.366Z,16.40
2018-05-11T09:17:26.025Z,16.40
2018-05-11T09:19:53.720Z,16.10
2018-05-11T09:22:21.396Z,15.80
2018-05-11T09:24:49.098Z,16.10
2018-05-11T09:27:16.768Z,16.10
2018-05-11T09:29:44.447Z,15.30
2018-05-11T09:32:12.114Z,15.40
2018-05-11T09:34:40.593Z,15.00
2018-05-11T09:37:09.030Z,15.10
2018-05-11T09:39:36.743Z,15.00
2018-05-11T09:42:05.163Z,15.70
2018-05-11T09:44:32.823Z,15.70
2018-05-11T09:47:00.520Z,15.70
2018-05-11T09:49:28.173Z,16.00
2018-05-11T09:51:55.861Z,16.20
2018-05-11T09:54:24.279Z,15.50
2018-05-11T09:56:51.949Z,15.50
2018-05-11T09:59:19.620Z,15.60
2018-05-11T10:01:47.348Z,15.60
2018-05-11T10:04:15.003Z,15.60
2018-05-11T10:06:42.667Z,15.40
2018-05-11T10:09:10.319Z,15.70
2018-05-11T10:11:39.726Z,15.90
2018-05-11T10:14:09.196Z,16.10
2018-05-11T10:16:36.887Z,16.10
2018-05-11T10:19:05.319Z,15.70
2018-05-11T10:21:33.021Z,15.70
2018-05-11T10:24:00.680Z,15.80
2018-05-11T10:26:29.134Z,15.70
2018-05-11T10:28:57.437Z,15.60
2018-05-11T10:31:25.089Z,15.70
2018-05-11T10:33:52.758Z,15.50
2018-05-11T10:36:21.229Z,15.60
2018-05-11T10:38:48.883Z,15.50
2018-05-11T10:41:16.539Z,15.70
2018-05-11T10:43:44.234Z,15.90
2018-05-11T10:46:12.662Z,16.20
2018-05-11T10:48:40.356Z,16.20
2018-05-11T10:51:09.777Z,16.10
2018-05-11T10:53:39.356Z,16.20
2018-05-11T10:56:07.021Z,16.30
2018-05-11T10:58:34.710Z,16.20
2018-05-11T11:01:03.139Z,16.50
2018-05-11T11:03:30.838Z,16.50
2018-05-11T11:05:59.276Z,16.10
2018-05-11T11:08:26.948Z,16.10
2018-05-11T11:10:54.597Z,16.30
2018-05-11T11:13:22.283Z,16.40
2018-05-11T11:15:49.943Z,16.20
2018-05-11T11:18:17.642Z,16.10
2018-05-11T11:20:45.305Z,15.90
2018-05-11T11:23:12.993Z,15.60
2018-05-11T11:25:40.650Z,15.90
2018-05-11T11:28:09.692Z,16.10
2018-05-11T11:30:37.386Z,16.00
2018-05-11T11:33:05.092Z,16.10
2018-05-11T11:35:32.751Z,16.30
2018-05-11T11:38:00.425Z,16.40
2018-05-11T11:40:28.088Z,16.60
2018-05-11T11:42:55.777Z,16.50
2018-05-11T11:45:24.209Z,16.80
2018-05-11T11:47:51.908Z,16.80
2018-05-11T11:50:20.343Z,16.80
2018-05-11T11:52:48.064Z,16.70
2018-05-11T11:55:16.499Z,16.90
2018-05-11T11:57:44.166Z,16.80
2018-05-11T12:00:11.859Z,16.80
2018-05-11T12:02:40.664Z,17.00
2018-05-11T12:05:09.133Z,16.90
2018-05-11T12:07:38.696Z,16.90
2018-05-11T12:10:06.485Z,16.80
2018-05-11T12:12:34.154Z,16.80
2018-05-11T12:15:02.623Z,16.80
2018-05-11T12:17:30.298Z,16.80
2018-05-11T12:19:58.759Z,16.50
2018-05-11T12:22:26.426Z,16.50
2018-05-11T12:24:54.113Z,16.20
2018-05-11T12:27:22.543Z,16.60
2018-05-11T12:29:50.242Z,16.60
2018-05-11T12:32:17.901Z,16.50
2018-05-11T12:34:45.634Z,16.70
2018-05-11T12:37:13.279Z,17.00
2018-05-11T12:39:40.975Z,17.10
2018-05-11T12:42:09.614Z,16.80
2018-05-11T12:44:39.124Z,16.40
2018-05-11T12:47:08.342Z,16.50
2018-05-11T12:49:36.021Z,16.50
2018-05-11T12:52:03.681Z,16.30
2018-05-11T12:54:31.355Z,16.10
2018-05-11T12:56:59.018Z,16.30
2018-05-11T12:59:26.710Z,16.60
2018-05-11T13:01:54.363Z,16.60
2018-05-11T13:04:22.048Z,16.80
2018-05-11T13:06:49.706Z,16.90
2018-05-11T13:09:17.390Z,16.90
2018-05-11T13:11:45.042Z,16.90
2018-05-11T13:14:12.698Z,16.90
2018-05-11T13:16:40.373Z,16.80
2018-05-11T13:19:09.042Z,16.80
2018-05-11T13:21:36.742Z,16.90
2018-05-11T13:24:04.406Z,16.90
2018-05-11T13:26:32.097Z,16.90
2018-05-11T13:29:00.553Z,16.90
2018-05-11T13:31:28.224Z,16.90
2018-05-11T13:33:55.890Z,16.90
2018-05-11T13:36:24.408Z,16.90
2018-05-11T13:38:52.815Z,17.10
2018-05-11T13:41:20.506Z,17.10
2018-05-11T13:43:48.177Z,17.20
2018-05-11T13:46:16.636Z,16.90
2018-05-11T13:48:44.297Z,16.90
2018-05-11T13:51:11.974Z,16.80
2018-05-11T13:53:40.402Z,17.00
2018-05-11T13:56:09.175Z,17.00
2018-05-11T13:58:38.608Z,17.10
2018-05-11T14:01:06.302Z,17.10
2018-05-11T14:03:33.999Z,17.30
2018-05-11T14:06:02.428Z,17.00
2018-05-11T14:08:30.105Z,17.00
2018-05-11T14:10:57.778Z,17.00
2018-05-11T14:13:26.206Z,16.80
2018-05-11T14:15:53.886Z,16.80
2018-05-11T14:18:21.537Z,16.90
2018-05-11T14:20:49.228Z,17.10
2018-05-11T14:23:16.889Z,17.30
2018-05-11T14:25:44.590Z,17.30
2018-05-11T14:28:12.252Z,17.20
2018-05-11T14:30:40.671Z,17.00
2018-05-11T14:33:08.345Z,17.30
2018-05-11T14:35:36.007Z,17.50
2018-05-11T14:38:03.777Z,17.70
2018-05-11T14:40:31.424Z,17.60
2018-05-11T14:42:59.097Z,17.80
2018-05-11T14:45:26.767Z,18.10
2018-05-11T14:47:55.209Z,18.10
2018-05-11T14:50:22.875Z,18.00
2018-05-11T14:52:50.570Z,18.10
2018-05-11T14:55:18.992Z,18.00
2018-05-11T14:57:46.680Z,17.90
2018-05-11T15:00:14.329Z,17.90
2018-05-11T15:02:42.012Z,18.20
2018-05-11T15:05:11.014Z,18.90
2018-05-11T15:07:39.588Z,18.90
2018-05-11T15:10:07.283Z,18.90
2018-05-11T15:12:35.738Z,18.70
2018-05-11T15:15:03.407Z,18.70
2018-05-11T15:17:31.094Z,18.60
2018-05-11T15:19:58.762Z,18.70
2018-05-11T15:22:26.447Z,18.80
2018-05-11T15:24:54.120Z,18.90
2018-05-11T15:27:21.805Z,18.90
2018-05-11T15:29:49.474Z,19.00
2018-05-11T15:32:17.140Z,18.80
2018-05-11T15:34:44.799Z,18.90
2018-05-11T15:37:12.479Z,18.80
2018-05-11T15:39:40.908Z,18.90
2018-05-11T15:42:09.903Z,18.90
2018-05-11T15:44:38.280Z,19.00
2018-05-11T15:47:05.958Z,18.70
2018-05-11T15:49:33.604Z,18.30
2018-05-11T15:52:01.247Z,17.70
2018-05-11T15:54:28.933Z,17.90
2018-05-11T15:56:56.590Z,18.10
2018-05-11T15:59:24.263Z,17.90
2018-05-11T16:01:51.917Z,17.80
2018-05-11T16:04:19.587Z,17.80
2018-05-11T16:06:47.246Z,17.80
2018-05-11T16:09:14.916Z,17.80
2018-05-11T16:11:42.552Z,17.90
2018-05-11T16:14:10.242Z,18.00
2018-05-11T16:16:38.307Z,17.90
2018-05-11T16:19:05.971Z,18.00
2018-05-11T16:21:33.625Z,18.20
2018-05-11T16:24:01.311Z,18.20
2018-05-11T16:26:29.738Z,18.10
2018-05-11T16:28:57.423Z,18.10
2018-05-11T16:31:25.087Z,18.30
2018-05-11T16:33:52.766Z,18.60
2018-05-11T16:36:20.418Z,18.70
2018-05-11T16:38:48.104Z,18.80
2018-05-11T16:41:16.531Z,19.00
2018-05-11T16:43:44.222Z,19.00
2018-05-11T16:46:11.888Z,19.10
2018-05-11T16:48:40.875Z,19.10
2018-05-11T16:51:09.355Z,19.10
2018-05-11T16:53:36.879Z,19.00
2018-05-11T16:56:04.528Z,19.00
2018-05-11T16:58:32.211Z,18.90
2018-05-11T17:00:59.870Z,18.80
2018-05-11T17:03:27.558Z,18.70
2018-05-11T17:05:55.231Z,18.60
2018-05-11T17:08:23.662Z,18.50
2018-05-11T17:10:51.353Z,18.40
2018-05-11T17:13:19.023Z,18.40
2018-05-11T17:15:46.709Z,18.40
2018-05-11T17:18:15.140Z,18.30
2018-05-11T17:20:42.820Z,18.30
2018-05-11T17:23:10.496Z,18.30
2018-05-11T17:25:39.272Z,18.30
2018-05-11T17:28:08.757Z,18.40
2018-05-11T17:30:36.442Z,18.40
2018-05-11T17:33:04.115Z,18.40
2018-05-11T17:35:32.568Z,18.40
2018-05-11T17:38:00.224Z,18.40
2018-05-11T17:40:27.914Z,18.30
2018-05-11T17:42:55.593Z,18.20
2018-05-11T17:45:23.294Z,18.20
2018-05-11T17:47:50.962Z,18.10
2018-05-11T17:50:18.648Z,17.90
2018-05-11T17:52:46.319Z,17.90
2018-05-11T17:55:14.002Z,17.60
2018-05-11T17:57:42.424Z,17.40
2018-05-11T18:00:10.870Z,17.30
2018-05-11T18:02:40.028Z,17.40
2018-05-11T18:05:08.389Z,17.30
2018-05-11T18:07:36.038Z,17.10
2018-05-11T18:10:03.736Z,17.00
2018-05-11T18:12:31.419Z,16.80
2018-05-11T18:14:59.868Z,16.70
2018-05-11T18:17:27.512Z,16.70
2018-05-11T18:19:55.211Z,16.60
2018-05-11T18:22:23.665Z,16.30
2018-05-11T18:24:51.363Z,16.30
2018-05-11T18:27:19.805Z,16.30
2018-05-11T18:29:47.468Z,16.30
2018-05-11T18:32:15.153Z,16.20
2018-05-11T18:34:42.802Z,16.20
2018-05-11T18:37:10.485Z,16.20
2018-05-11T18:39:38.953Z,15.90
2018-05-11T18:42:06.633Z,15.90
2018-05-11T18:44:35.062Z,15.80
2018-05-11T18:47:02.824Z,15.80
2018-05-11T18:49:30.453Z,15.70
2018-05-11T18:51:58.328Z,15.60
2018-05-11T18:54:26.525Z,15.50
2018-05-11T18:56:53.714Z,15.40
2018-05-11T18:59:22.148Z,15.30
2018-05-11T19:01:49.888Z,15.30
2018-05-11T19:04:17.534Z,15.20
2018-05-11T19:06:45.271Z,15.20
2018-05-11T19:09:12.943Z,15.10
2018-05-11T19:11:41.396Z,14.90
2018-05-11T19:14:09.065Z,14.90
2018-05-11T19:16:36.750Z,14.80
2018-05-11T19:19:04.421Z,14.80
2018-05-11T19:21:32.879Z,14.60
2018-05-11T19:24:00.535Z,14.60
2018-05-11T19:26:29.017Z,14.40
2018-05-11T19:28:56.686Z,14.40
2018-05-11T19:31:24.381Z,14.40
2018-05-11T19:33:52.034Z,14.30
2018-05-11T19:36:19.726Z,14.20
2018-05-11T19:38:47.387Z,14.20
2018-05-11T19:41:15.055Z,14.10
2018-05-11T19:43:42.709Z,14.00
2018-05-11T19:46:10.352Z,13.90
2018-05-11T19:48:39.293Z,13.80
2018-05-11T19:51:09.217Z,13.80
2018-05-11T19:53:36.943Z,13.80
2018-05-11T19:59:17.522Z,13.70
2018-05-11T20:05:42.873Z,13.50
2018-05-11T20:08:11.405Z,13.30
2018-05-11T20:10:40.037Z,13.30
2018-05-11T20:13:08.414Z,13.20
2018-05-11T20:15:36.074Z,13.20
2018-05-11T20:18:03.778Z,13.10
2018-05-11T20:20:32.879Z,13.10
2018-05-11T20:23:00.635Z,13.10
2018-05-11T20:25:29.077Z,13.00
2018-05-11T20:27:56.760Z,13.00
2018-05-11T20:30:24.426Z,13.00
2018-05-11T20:32:52.222Z,12.90
2018-05-11T20:35:19.888Z,12.90
2018-05-11T20:37:47.561Z,12.80
2018-05-11T20:40:15.225Z,12.80
2018-05-11T20:42:42.910Z,12.70
2018-05-11T20:45:10.991Z,12.60
2018-05-11T20:47:39.601Z,12.60
2018-05-11T20:50:10.078Z,12.40
2018-05-11T20:52:38.371Z,12.40
2018-05-11T20:55:06.018Z,12.40
2018-05-11T20:57:33.730Z,12.30
2018-05-11T21:00:02.166Z,12.20
2018-05-11T21:02:29.844Z,12.20
2018-05-11T21:04:57.591Z,12.20
2018-05-11T21:07:25.227Z,12.10
2018-05-11T21:09:52.896Z,12.10
2018-05-11T21:12:20.553Z,12.10
2018-05-11T21:14:48.336Z,12.10
2018-05-11T21:17:15.910Z,12.10
2018-05-11T21:19:43.588Z,12.00
2018-05-11T21:22:11.253Z,11.80
2018-05-11T21:24:38.936Z,11.80
2018-05-11T21:27:07.439Z,11.80
2018-05-11T21:29:35.066Z,11.80
2018-05-11T21:32:03.498Z,11.70
2018-05-11T21:34:31.193Z,11.70
2018-05-11T21:36:58.862Z,11.60
2018-05-11T21:39:26.555Z,11.60
2018-05-11T21:41:54.218Z,11.60
2018-05-11T21:44:21.908Z,11.60
2018-05-11T21:46:49.565Z,11.60
2018-05-11T21:49:17.267Z,11.60
2018-05-11T21:51:44.925Z,11.50
2018-05-11T21:54:12.606Z,11.50
2018-05-11T21:56:41.044Z,11.40
2018-05-11T21:59:09.265Z,11.40
2018-05-11T22:01:37.885Z,11.30
2018-05-11T22:04:05.565Z,11.30
2018-05-11T22:06:33.234Z,11.30
2018-05-11T22:09:00.910Z,11.30
2018-05-11T22:11:28.571Z,11.30
2018-05-11T22:13:56.254Z,11.20
2018-05-11T22:16:24.705Z,11.10
2018-05-11T22:18:52.382Z,11.10
2018-05-11T22:21:20.828Z,10.90
2018-05-11T22:23:48.490Z,10.90
2018-05-11T22:26:16.187Z,10.80
2018-05-11T22:28:44.614Z,10.60
2018-05-11T22:31:12.296Z,10.60
2018-05-11T22:33:39.972Z,10.50
2018-05-11T22:36:08.330Z,10.50
2018-05-11T22:38:35.971Z,10.50
2018-05-11T22:41:03.654Z,10.50
2018-05-11T22:43:31.312Z,10.40
2018-05-11T22:45:58.997Z,10.40
2018-05-11T22:48:26.650Z,10.30
2018-05-11T22:50:54.401Z,10.30
2018-05-11T22:53:22.064Z,10.20
2018-05-11T22:55:49.758Z,10.20
2018-05-11T22:58:18.172Z,10.20
2018-05-11T23:00:45.862Z,10.20
2018-05-11T23:03:13.532Z,10.10
2018-05-11T23:05:41.221Z,10.10
2018-05-11T23:08:10.931Z,10.10
2018-05-11T23:10:40.606Z,10.00
2018-05-11T23:13:09.412Z,10.00
2018-05-11T23:15:37.109Z,10.00
2018-05-11T23:18:04.772Z,10.00
2018-05-11T23:20:32.458Z,10.00
2018-05-11T23:23:00.150Z,9.90
2018-05-11T23:25:27.826Z,9.90
2018-05-11T23:27:55.494Z,9.90
2018-05-11T23:30:23.950Z,9.80
2018-05-11T23:32:51.614Z,9.80
2018-05-11T23:35:19.281Z,9.80
2018-05-11T23:37:46.961Z,9.70
2018-05-11T23:40:15.400Z,9.60
2018-05-11T23:42:43.097Z,9.60
2018-05-11T23:45:10.774Z,9.50
2018-05-11T23:47:40.347Z,9.50
2018-05-11T23:50:09.006Z,9.40
2018-05-11T23:52:36.694Z,9.40
2018-05-11T23:55:04.350Z,9.40
2018-05-11T23:57:32.026Z,9.30
2018-05-11T23:59:59.702Z,9.30
